EBCI/CRL METAR and TAF weather

Enter ICAO airport designator
Station Type Date Time Source
EBCI METAR 2022/01/29 13:20 UTC NOAA

EBCI 291320Z 24017KT 9999 FEW008 BKN011 09/07 Q1026 BECMG 26018G29KT BKN015


Station Type Date Time Source
EBCI Decoded METAR 2022/01/29 13:20 UTC NOAA

Charleroi / Gosselies, Belgium (EBCI) 50-28N 004-27E 192M
Jan 29, 2022 - 08:20 AM EST / 2022.01.29 1320 UTC
Wind: from the WSW (240 degrees) at 20 MPH (17 KT):0
Visibility: greater than 7 mile(s):0
Sky conditions: mostly cloudy
Temperature: 48 F (9 C)
Dew Point: 44 F (7 C)
Relative Humidity: 87%
Pressure (altimeter): 30.30 in. Hg (1026 hPa)
ob: EBCI 291320Z 24017KT 9999 FEW008 BKN011 09/07 Q1026 BECMG 26018G29KT BKN015
cycle: 13

Station Type Date Time Source
EBCI TAF 2022/01/29 12:27 UTC NOAA

TAF EBCI 291116Z 2912/3018 26012KT 9999 SCT008 BKN012 PROB30
TEMPO 2912/2916 27015G25KT PROB30
TEMPO 2917/2920 4500 RA SHRA BKN008
BECMG 2919/2921 SCT015

Example: see airport list